sensor_id;sensor_type;location;lat;lon;timestamp;temperature;humidity
12060;DHT22;6091;51.432;6.880;2023-04-19T00:00:10;24.00;32.40
12060;DHT22;6091;51.432;6.880;2023-04-19T00:02:37;24.00;32.40
12060;DHT22;6091;51.432;6.880;2023-04-19T00:05:08;24.00;32.50
12060;DHT22;6091;51.432;6.880;2023-04-19T00:07:37;24.00;32.50
12060;DHT22;6091;51.432;6.880;2023-04-19T00:10:05;24.00;32.50
12060;DHT22;6091;51.432;6.880;2023-04-19T00:12:33;24.00;32.50
12060;DHT22;6091;51.432;6.880;2023-04-19T00:15:00;24.00;31.90
12060;DHT22;6091;51.432;6.880;2023-04-19T00:17:27;23.90;32.40
12060;DHT22;6091;51.432;6.880;2023-04-19T00:19:54;24.00;32.50
12060;DHT22;6091;51.432;6.880;2023-04-19T00:22:22;24.00;31.90
12060;DHT22;6091;51.432;6.880;2023-04-19T00:24:49;23.90;32.50
12060;DHT22;6091;51.432;6.880;2023-04-19T00:27:16;24.00;32.60
12060;DHT22;6091;51.432;6.880;2023-04-19T00:29:43;23.80;31.90
12060;DHT22;6091;51.432;6.880;2023-04-19T00:32:10;23.90;32.50
12060;DHT22;6091;51.432;6.880;2023-04-19T00:34:37;24.00;32.20
12060;DHT22;6091;51.432;6.880;2023-04-19T00:37:04;23.90;32.50
12060;DHT22;6091;51.432;6.880;2023-04-19T00:39:31;23.90;32.60
12060;DHT22;6091;51.432;6.880;2023-04-19T00:41:58;23.90;32.60
12060;DHT22;6091;51.432;6.880;2023-04-19T00:44:26;23.90;32.60
12060;DHT22;6091;51.432;6.880;2023-04-19T00:46:55;23.90;32.60
12060;DHT22;6091;51.432;6.880;2023-04-19T00:49:23;23.90;32.60
12060;DHT22;6091;51.432;6.880;2023-04-19T00:51:51;23.80;32.50
12060;DHT22;6091;51.432;6.880;2023-04-19T00:54:19;23.90;32.60
12060;DHT22;6091;51.432;6.880;2023-04-19T00:56:46;23.80;32.60
12060;DHT22;6091;51.432;6.880;2023-04-19T00:59:14;23.80;32.00
12060;DHT22;6091;51.432;6.880;2023-04-19T01:01:42;23.80;32.60
12060;DHT22;6091;51.432;6.880;2023-04-19T01:04:09;23.90;32.70
12060;DHT22;6091;51.432;6.880;2023-04-19T01:06:37;23.80;32.60
12060;DHT22;6091;51.432;6.880;2023-04-19T01:09:06;23.80;32.60
12060;DHT22;6091;51.432;6.880;2023-04-19T01:11:34;23.80;32.70
12060;DHT22;6091;51.432;6.880;2023-04-19T01:14:01;23.80;32.00
12060;DHT22;6091;51.432;6.880;2023-04-19T01:16:28;23.80;32.70
12060;DHT22;6091;51.432;6.880;2023-04-19T01:18:56;23.80;32.70
12060;DHT22;6091;51.432;6.880;2023-04-19T01:21:23;23.80;32.70
12060;DHT22;6091;51.432;6.880;2023-04-19T01:23:50;23.80;32.10
12060;DHT22;6091;51.432;6.880;2023-04-19T01:26:18;23.80;32.70
12060;DHT22;6091;51.432;6.880;2023-04-19T01:28:45;23.80;32.70
12060;DHT22;6091;51.432;6.880;2023-04-19T01:31:12;23.80;32.70
12060;DHT22;6091;51.432;6.880;2023-04-19T01:33:39;23.80;32.70
12060;DHT22;6091;51.432;6.880;2023-04-19T01:36:06;23.80;32.70
12060;DHT22;6091;51.432;6.880;2023-04-19T01:38:33;23.80;32.80
12060;DHT22;6091;51.432;6.880;2023-04-19T01:41:01;23.70;32.10
12060;DHT22;6091;51.432;6.880;2023-04-19T01:43:28;23.80;32.80
12060;DHT22;6091;51.432;6.880;2023-04-19T01:45:55;23.70;32.20
12060;DHT22;6091;51.432;6.880;2023-04-19T01:48:22;23.70;32.10
12060;DHT22;6091;51.432;6.880;2023-04-19T01:50:49;23.70;32.70
12060;DHT22;6091;51.432;6.880;2023-04-19T01:53:16;23.80;32.80
12060;DHT22;6091;51.432;6.880;2023-04-19T01:55:43;23.80;32.80
12060;DHT22;6091;51.432;6.880;2023-04-19T01:58:10;23.80;32.80
12060;DHT22;6091;51.432;6.880;2023-04-19T02:00:36;23.80;32.80
12060;DHT22;6091;51.432;6.880;2023-04-19T02:03:04;23.80;32.80
12060;DHT22;6091;51.432;6.880;2023-04-19T02:05:34;23.70;32.20
12060;DHT22;6091;51.432;6.880;2023-04-19T02:08:01;23.70;32.30
12060;DHT22;6091;51.432;6.880;2023-04-19T02:10:28;23.80;32.90
12060;DHT22;6091;51.432;6.880;2023-04-19T02:12:55;23.70;32.30
12060;DHT22;6091;51.432;6.880;2023-04-19T02:15:22;23.80;32.30
12060;DHT22;6091;51.432;6.880;2023-04-19T02:17:49;23.70;32.80
12060;DHT22;6091;51.432;6.880;2023-04-19T02:20:16;23.70;32.80
12060;DHT22;6091;51.432;6.880;2023-04-19T02:22:43;23.70;32.80
12060;DHT22;6091;51.432;6.880;2023-04-19T02:25:10;23.70;32.80
12060;DHT22;6091;51.432;6.880;2023-04-19T02:27:37;23.70;32.20
12060;DHT22;6091;51.432;6.880;2023-04-19T02:30:04;23.70;32.20
12060;DHT22;6091;51.432;6.880;2023-04-19T02:32:32;23.70;32.30
12060;DHT22;6091;51.432;6.880;2023-04-19T02:34:58;23.70;32.90
12060;DHT22;6091;51.432;6.880;2023-04-19T02:37:26;23.70;32.90
12060;DHT22;6091;51.432;6.880;2023-04-19T02:39:52;23.70;32.90
12060;DHT22;6091;51.432;6.880;2023-04-19T02:42:19;23.70;32.90
12060;DHT22;6091;51.432;6.880;2023-04-19T02:44:46;23.60;32.80
12060;DHT22;6091;51.432;6.880;2023-04-19T02:47:13;23.60;32.80
12060;DHT22;6091;51.432;6.880;2023-04-19T02:49:40;23.60;32.30
12060;DHT22;6091;51.432;6.880;2023-04-19T02:52:08;23.60;32.90
12060;DHT22;6091;51.432;6.880;2023-04-19T02:54:35;23.60;32.30
12060;DHT22;6091;51.432;6.880;2023-04-19T02:57:02;23.60;32.40
12060;DHT22;6091;51.432;6.880;2023-04-19T02:59:29;23.60;32.40
12060;DHT22;6091;51.432;6.880;2023-04-19T03:01:56;23.60;32.40
12060;DHT22;6091;51.432;6.880;2023-04-19T03:04:23;23.60;33.00
12060;DHT22;6091;51.432;6.880;2023-04-19T03:06:50;23.60;32.90
12060;DHT22;6091;51.432;6.880;2023-04-19T03:09:18;23.60;33.00
12060;DHT22;6091;51.432;6.880;2023-04-19T03:11:45;23.60;33.00
12060;DHT22;6091;51.432;6.880;2023-04-19T03:14:12;23.50;32.40
12060;DHT22;6091;51.432;6.880;2023-04-19T03:16:39;23.60;32.40
12060;DHT22;6091;51.432;6.880;2023-04-19T03:19:06;23.50;32.90
12060;DHT22;6091;51.432;6.880;2023-04-19T03:21:33;23.60;32.50
12060;DHT22;6091;51.432;6.880;2023-04-19T03:24:01;23.50;33.00
12060;DHT22;6091;51.432;6.880;2023-04-19T03:26:28;23.60;33.00
12060;DHT22;6091;51.432;6.880;2023-04-19T03:28:54;23.60;32.50
12060;DHT22;6091;51.432;6.880;2023-04-19T03:31:21;23.50;33.00
12060;DHT22;6091;51.432;6.880;2023-04-19T03:33:48;23.60;32.60
12060;DHT22;6091;51.432;6.880;2023-04-19T03:36:16;23.50;33.00
12060;DHT22;6091;51.432;6.880;2023-04-19T03:38:43;23.50;33.00
12060;DHT22;6091;51.432;6.880;2023-04-19T03:41:24;23.50;33.00
12060;DHT22;6091;51.432;6.880;2023-04-19T03:43:51;23.60;32.50
12060;DHT22;6091;51.432;6.880;2023-04-19T03:46:18;23.40;32.50
12060;DHT22;6091;51.432;6.880;2023-04-19T03:48:47;23.50;33.70
12060;DHT22;6091;51.432;6.880;2023-04-19T03:51:14;23.50;33.10
12060;DHT22;6091;51.432;6.880;2023-04-19T03:53:41;23.50;33.10
12060;DHT22;6091;51.432;6.880;2023-04-19T03:56:09;23.50;33.10
12060;DHT22;6091;51.432;6.880;2023-04-19T03:58:36;23.50;33.10
12060;DHT22;6091;51.432;6.880;2023-04-19T04:01:03;23.50;33.10
12060;DHT22;6091;51.432;6.880;2023-04-19T04:03:31;23.50;33.10
12060;DHT22;6091;51.432;6.880;2023-04-19T04:08:26;23.50;32.60
12060;DHT22;6091;51.432;6.880;2023-04-19T04:10:53;23.40;33.00
12060;DHT22;6091;51.432;6.880;2023-04-19T04:13:21;23.40;33.00
12060;DHT22;6091;51.432;6.880;2023-04-19T04:15:48;23.50;33.10
12060;DHT22;6091;51.432;6.880;2023-04-19T04:18:16;23.40;32.60
12060;DHT22;6091;51.432;6.880;2023-04-19T04:20:43;23.20;32.30
12060;DHT22;6091;51.432;6.880;2023-04-19T04:23:10;23.50;33.20
12060;DHT22;6091;51.432;6.880;2023-04-19T04:25:37;23.50;32.60
12060;DHT22;6091;51.432;6.880;2023-04-19T04:28:05;23.20;32.40
12060;DHT22;6091;51.432;6.880;2023-04-19T04:30:32;23.50;32.70
12060;DHT22;6091;51.432;6.880;2023-04-19T04:33:01;23.40;32.60
12060;DHT22;6091;51.432;6.880;2023-04-19T04:35:28;23.40;33.10
12060;DHT22;6091;51.432;6.880;2023-04-19T04:37:56;23.40;32.60
12060;DHT22;6091;51.432;6.880;2023-04-19T04:40:23;23.40;33.10
12060;DHT22;6091;51.432;6.880;2023-04-19T04:42:50;23.40;32.60
12060;DHT22;6091;51.432;6.880;2023-04-19T04:45:18;23.30;33.20
12060;DHT22;6091;51.432;6.880;2023-04-19T04:47:46;23.40;32.60
12060;DHT22;6091;51.432;6.880;2023-04-19T04:50:13;23.40;33.20
12060;DHT22;6091;51.432;6.880;2023-04-19T04:52:40;23.40;32.60
12060;DHT22;6091;51.432;6.880;2023-04-19T04:55:07;23.40;32.70
12060;DHT22;6091;51.432;6.880;2023-04-19T04:57:35;23.40;32.70
12060;DHT22;6091;51.432;6.880;2023-04-19T05:00:02;23.30;33.10
12060;DHT22;6091;51.432;6.880;2023-04-19T05:02:32;23.40;32.70
12060;DHT22;6091;51.432;6.880;2023-04-19T05:04:59;23.30;33.20
12060;DHT22;6091;51.432;6.880;2023-04-19T05:09:53;23.30;32.70
12060;DHT22;6091;51.432;6.880;2023-04-19T05:12:20;23.40;33.30
12060;DHT22;6091;51.432;6.880;2023-04-19T05:17:14;23.40;32.70
12060;DHT22;6091;51.432;6.880;2023-04-19T05:19:41;23.30;32.70
12060;DHT22;6091;51.432;6.880;2023-04-19T05:22:08;23.40;32.80
12060;DHT22;6091;51.432;6.880;2023-04-19T05:24:35;23.30;33.30
12060;DHT22;6091;51.432;6.880;2023-04-19T05:27:02;23.30;32.70
12060;DHT22;6091;51.432;6.880;2023-04-19T05:29:30;23.30;32.80
12060;DHT22;6091;51.432;6.880;2023-04-19T05:31:58;23.30;32.70
12060;DHT22;6091;51.432;6.880;2023-04-19T05:34:25;23.30;32.80
12060;DHT22;6091;51.432;6.880;2023-04-19T05:36:51;23.30;33.30
12060;DHT22;6091;51.432;6.880;2023-04-19T05:39:18;23.30;32.90
12060;DHT22;6091;51.432;6.880;2023-04-19T05:41:46;23.30;33.00
12060;DHT22;6091;51.432;6.880;2023-04-19T05:44:13;23.30;33.10
12060;DHT22;6091;51.432;6.880;2023-04-19T05:46:41;23.40;33.70
12060;DHT22;6091;51.432;6.880;2023-04-19T05:49:08;23.40;33.30
12060;DHT22;6091;51.432;6.880;2023-04-19T05:51:35;23.40;33.80
12060;DHT22;6091;51.432;6.880;2023-04-19T05:54:02;23.70;33.40
12060;DHT22;6091;51.432;6.880;2023-04-19T05:56:29;23.80;33.30
12060;DHT22;6091;51.432;6.880;2023-04-19T05:58:57;23.90;33.20
12060;DHT22;6091;51.432;6.880;2023-04-19T06:01:25;23.80;33.60
12060;DHT22;6091;51.432;6.880;2023-04-19T06:03:52;24.10;32.90
12060;DHT22;6091;51.432;6.880;2023-04-19T06:06:23;24.20;32.90
12060;DHT22;6091;51.432;6.880;2023-04-19T06:08:50;24.20;32.70
12060;DHT22;6091;51.432;6.880;2023-04-19T06:11:20;24.20;32.50
12060;DHT22;6091;51.432;6.880;2023-04-19T06:13:57;24.40;32.50
12060;DHT22;6091;51.432;6.880;2023-04-19T06:16:24;24.50;32.50
12060;DHT22;6091;51.432;6.880;2023-04-19T06:18:51;24.70;32.50
12060;DHT22;6091;51.432;6.880;2023-04-19T06:21:18;24.70;32.30
12060;DHT22;6091;51.432;6.880;2023-04-19T06:23:45;24.80;32.20
12060;DHT22;6091;51.432;6.880;2023-04-19T06:26:12;24.90;32.10
12060;DHT22;6091;51.432;6.880;2023-04-19T06:28:39;24.90;31.80
12060;DHT22;6091;51.432;6.880;2023-04-19T06:31:06;25.00;31.80
12060;DHT22;6091;51.432;6.880;2023-04-19T06:33:33;25.00;31.80
12060;DHT22;6091;51.432;6.880;2023-04-19T06:38:28;25.10;31.80
12060;DHT22;6091;51.432;6.880;2023-04-19T06:40:55;25.20;31.90
12060;DHT22;6091;51.432;6.880;2023-04-19T06:43:23;25.30;31.90
12060;DHT22;6091;51.432;6.880;2023-04-19T06:46:01;25.30;31.90
12060;DHT22;6091;51.432;6.880;2023-04-19T06:48:30;25.40;31.90
12060;DHT22;6091;51.432;6.880;2023-04-19T06:53:24;25.50;31.90
12060;DHT22;6091;51.432;6.880;2023-04-19T06:56:00;25.60;32.00
12060;DHT22;6091;51.432;6.880;2023-04-19T07:00:58;25.60;31.90
12060;DHT22;6091;51.432;6.880;2023-04-19T07:03:27;25.70;31.50
12060;DHT22;6091;51.432;6.880;2023-04-19T07:08:23;25.90;32.00
12060;DHT22;6091;51.432;6.880;2023-04-19T07:11:04;26.00;32.00
12060;DHT22;6091;51.432;6.880;2023-04-19T07:13:31;26.00;31.90
12060;DHT22;6091;51.432;6.880;2023-04-19T07:18:29;26.10;31.80
12060;DHT22;6091;51.432;6.880;2023-04-19T07:23:23;26.20;31.80
12060;DHT22;6091;51.432;6.880;2023-04-19T07:25:50;26.20;31.80
12060;DHT22;6091;51.432;6.880;2023-04-19T07:30:45;26.20;31.80
12060;DHT22;6091;51.432;6.880;2023-04-19T07:35:40;26.20;31.80
12060;DHT22;6091;51.432;6.880;2023-04-19T07:38:07;26.30;31.90
12060;DHT22;6091;51.432;6.880;2023-04-19T07:40:34;26.20;31.80
12060;DHT22;6091;51.432;6.880;2023-04-19T07:43:01;26.30;31.80
12060;DHT22;6091;51.432;6.880;2023-04-19T07:45:29;26.30;31.90
12060;DHT22;6091;51.432;6.880;2023-04-19T07:47:57;26.30;31.90
12060;DHT22;6091;51.432;6.880;2023-04-19T07:50:24;26.30;31.90
12060;DHT22;6091;51.432;6.880;2023-04-19T07:52:53;26.30;31.90
12060;DHT22;6091;51.432;6.880;2023-04-19T07:55:20;26.20;31.80
12060;DHT22;6091;51.432;6.880;2023-04-19T07:57:48;26.30;32.40
12060;DHT22;6091;51.432;6.880;2023-04-19T08:00:17;26.30;31.90
12060;DHT22;6091;51.432;6.880;2023-04-19T08:02:45;26.30;31.90
12060;DHT22;6091;51.432;6.880;2023-04-19T08:05:15;26.30;31.90
12060;DHT22;6091;51.432;6.880;2023-04-19T08:07:46;26.30;31.90
12060;DHT22;6091;51.432;6.880;2023-04-19T08:10:14;26.40;31.90
12060;DHT22;6091;51.432;6.880;2023-04-19T08:12:42;26.40;31.90
12060;DHT22;6091;51.432;6.880;2023-04-19T08:15:27;26.40;31.90
12060;DHT22;6091;51.432;6.880;2023-04-19T08:18:14;26.30;31.80
12060;DHT22;6091;51.432;6.880;2023-04-19T08:20:41;26.40;31.80
12060;DHT22;6091;51.432;6.880;2023-04-19T08:23:08;26.40;31.80
12060;DHT22;6091;51.432;6.880;2023-04-19T08:25:48;26.40;31.80
12060;DHT22;6091;51.432;6.880;2023-04-19T08:28:16;26.50;31.80
12060;DHT22;6091;51.432;6.880;2023-04-19T08:30:43;26.40;31.80
12060;DHT22;6091;51.432;6.880;2023-04-19T08:33:11;26.50;31.80
12060;DHT22;6091;51.432;6.880;2023-04-19T08:38:07;26.40;29.30
12060;DHT22;6091;51.432;6.880;2023-04-19T08:40:42;26.30;29.50
12060;DHT22;6091;51.432;6.880;2023-04-19T08:43:14;26.20;29.50
12060;DHT22;6091;51.432;6.880;2023-04-19T08:45:46;26.20;29.60
12060;DHT22;6091;51.432;6.880;2023-04-19T08:48:14;26.10;29.70
12060;DHT22;6091;51.432;6.880;2023-04-19T08:50:44;26.10;30.00
12060;DHT22;6091;51.432;6.880;2023-04-19T08:53:33;26.10;30.00
12060;DHT22;6091;51.432;6.880;2023-04-19T08:56:02;26.10;30.00
12060;DHT22;6091;51.432;6.880;2023-04-19T08:58:32;26.10;30.00
12060;DHT22;6091;51.432;6.880;2023-04-19T09:01:06;26.10;30.10
12060;DHT22;6091;51.432;6.880;2023-04-19T09:03:43;26.20;30.20
12060;DHT22;6091;51.432;6.880;2023-04-19T09:06:36;26.20;30.20
12060;DHT22;6091;51.432;6.880;2023-04-19T09:09:25;26.20;30.30
12060;DHT22;6091;51.432;6.880;2023-04-19T09:12:16;26.30;30.70
12060;DHT22;6091;51.432;6.880;2023-04-19T09:14:44;26.30;30.40
12060;DHT22;6091;51.432;6.880;2023-04-19T09:19:55;26.30;30.30
12060;DHT22;6091;51.432;6.880;2023-04-19T09:22:22;26.40;30.40
12060;DHT22;6091;51.432;6.880;2023-04-19T09:24:50;26.40;30.40
12060;DHT22;6091;51.432;6.880;2023-04-19T09:27:38;26.40;30.30
12060;DHT22;6091;51.432;6.880;2023-04-19T09:30:06;26.40;30.30
12060;DHT22;6091;51.432;6.880;2023-04-19T09:32:47;26.50;30.30
12060;DHT22;6091;51.432;6.880;2023-04-19T09:35:15;26.50;30.30
12060;DHT22;6091;51.432;6.880;2023-04-19T09:37:42;26.50;30.30
12060;DHT22;6091;51.432;6.880;2023-04-19T09:40:31;26.50;30.30
12060;DHT22;6091;51.432;6.880;2023-04-19T09:45:40;26.50;30.20
12060;DHT22;6091;51.432;6.880;2023-04-19T09:48:10;26.60;30.20
12060;DHT22;6091;51.432;6.880;2023-04-19T09:51:00;26.60;30.20
12060;DHT22;6091;51.432;6.880;2023-04-19T09:56:06;26.60;30.10
12060;DHT22;6091;51.432;6.880;2023-04-19T10:01:19;26.60;30.10
12060;DHT22;6091;51.432;6.880;2023-04-19T10:03:48;26.60;30.00
12060;DHT22;6091;51.432;6.880;2023-04-19T10:08:49;26.60;30.00
12060;DHT22;6091;51.432;6.880;2023-04-19T10:11:20;26.70;30.10
12060;DHT22;6091;51.432;6.880;2023-04-19T10:13:49;26.60;30.00
12060;DHT22;6091;51.432;6.880;2023-04-19T10:16:25;26.60;30.00
12060;DHT22;6091;51.432;6.880;2023-04-19T10:18:53;26.70;30.00
12060;DHT22;6091;51.432;6.880;2023-04-19T10:21:21;26.70;30.00
12060;DHT22;6091;51.432;6.880;2023-04-19T10:23:50;26.70;30.00
12060;DHT22;6091;51.432;6.880;2023-04-19T10:26:17;26.70;30.00
12060;DHT22;6091;51.432;6.880;2023-04-19T10:28:44;26.70;30.00
12060;DHT22;6091;51.432;6.880;2023-04-19T10:31:13;26.80;30.10
12060;DHT22;6091;51.432;6.880;2023-04-19T10:33:41;26.80;30.20
12060;DHT22;6091;51.432;6.880;2023-04-19T10:36:10;26.90;30.20
12060;DHT22;6091;51.432;6.880;2023-04-19T10:38:44;27.00;30.20
12060;DHT22;6091;51.432;6.880;2023-04-19T10:41:16;27.00;30.10
12060;DHT22;6091;51.432;6.880;2023-04-19T10:44:07;27.10;30.20
12060;DHT22;6091;51.432;6.880;2023-04-19T10:46:37;27.10;30.00
12060;DHT22;6091;51.432;6.880;2023-04-19T10:49:07;27.10;30.00
12060;DHT22;6091;51.432;6.880;2023-04-19T10:51:37;27.30;30.00
12060;DHT22;6091;51.432;6.880;2023-04-19T10:54:29;27.30;30.00
12060;DHT22;6091;51.432;6.880;2023-04-19T10:57:05;27.30;29.90
12060;DHT22;6091;51.432;6.880;2023-04-19T10:59:34;27.40;29.90
12060;DHT22;6091;51.432;6.880;2023-04-19T11:07:16;27.60;29.90
12060;DHT22;6091;51.432;6.880;2023-04-19T11:09:48;27.60;29.80
12060;DHT22;6091;51.432;6.880;2023-04-19T11:12:20;27.80;29.90
12060;DHT22;6091;51.432;6.880;2023-04-19T11:14:52;27.90;29.90
12060;DHT22;6091;51.432;6.880;2023-04-19T11:17:25;27.90;30.00
12060;DHT22;6091;51.432;6.880;2023-04-19T11:20:01;28.10;29.70
12060;DHT22;6091;51.432;6.880;2023-04-19T11:27:52;28.30;29.40
12060;DHT22;6091;51.432;6.880;2023-04-19T11:30:27;28.50;29.90
12060;DHT22;6091;51.432;6.880;2023-04-19T11:32:56;28.70;29.60
12060;DHT22;6091;51.432;6.880;2023-04-19T11:35:26;28.80;29.50
12060;DHT22;6091;51.432;6.880;2023-04-19T11:37:55;29.20;29.70
12060;DHT22;6091;51.432;6.880;2023-04-19T11:40:25;29.00;29.50
12060;DHT22;6091;51.432;6.880;2023-04-19T11:43:00;29.10;29.30
12060;DHT22;6091;51.432;6.880;2023-04-19T11:45:31;29.30;29.50
12060;DHT22;6091;51.432;6.880;2023-04-19T11:48:04;29.40;29.40
12060;DHT22;6091;51.432;6.880;2023-04-19T11:53:12;29.50;29.20
12060;DHT22;6091;51.432;6.880;2023-04-19T11:55:46;29.90;29.10
12060;DHT22;6091;51.432;6.880;2023-04-19T11:58:27;30.00;29.30
12060;DHT22;6091;51.432;6.880;2023-04-19T12:00:56;30.00;29.10
12060;DHT22;6091;51.432;6.880;2023-04-19T12:03:33;30.20;29.00
12060;DHT22;6091;51.432;6.880;2023-04-19T12:06:05;30.30;28.80
12060;DHT22;6091;51.432;6.880;2023-04-19T12:08:45;30.40;28.70
12060;DHT22;6091;51.432;6.880;2023-04-19T12:11:22;30.60;28.70
12060;DHT22;6091;51.432;6.880;2023-04-19T12:14:11;30.60;28.80
12060;DHT22;6091;51.432;6.880;2023-04-19T12:16:40;30.80;28.70
12060;DHT22;6091;51.432;6.880;2023-04-19T12:19:15;31.00;28.70
12060;DHT22;6091;51.432;6.880;2023-04-19T12:21:45;31.10;28.50
12060;DHT22;6091;51.432;6.880;2023-04-19T12:24:14;31.30;28.70
12060;DHT22;6091;51.432;6.880;2023-04-19T12:26:55;31.30;28.70
12060;DHT22;6091;51.432;6.880;2023-04-19T12:29:25;31.60;28.30
12060;DHT22;6091;51.432;6.880;2023-04-19T12:31:53;31.60;28.20
12060;DHT22;6091;51.432;6.880;2023-04-19T12:34:20;31.60;28.50
12060;DHT22;6091;51.432;6.880;2023-04-19T12:36:47;31.70;28.00
12060;DHT22;6091;51.432;6.880;2023-04-19T12:41:42;31.80;27.90
12060;DHT22;6091;51.432;6.880;2023-04-19T12:44:09;32.00;27.90
12060;DHT22;6091;51.432;6.880;2023-04-19T12:46:36;32.10;27.70
12060;DHT22;6091;51.432;6.880;2023-04-19T12:49:04;32.10;28.10
12060;DHT22;6091;51.432;6.880;2023-04-19T12:51:31;32.30;28.20
12060;DHT22;6091;51.432;6.880;2023-04-19T12:53:58;32.40;28.10
12060;DHT22;6091;51.432;6.880;2023-04-19T12:56:25;32.70;27.60
12060;DHT22;6091;51.432;6.880;2023-04-19T12:58:52;32.80;27.40
12060;DHT22;6091;51.432;6.880;2023-04-19T13:01:20;33.00;27.50
12060;DHT22;6091;51.432;6.880;2023-04-19T13:03:47;33.10;27.50
12060;DHT22;6091;51.432;6.880;2023-04-19T13:06:14;33.20;27.70
12060;DHT22;6091;51.432;6.880;2023-04-19T13:08:42;33.40;27.70
12060;DHT22;6091;51.432;6.880;2023-04-19T13:11:14;33.70;27.20
12060;DHT22;6091;51.432;6.880;2023-04-19T13:13:43;33.80;27.50
12060;DHT22;6091;51.432;6.880;2023-04-19T13:16:10;33.80;27.50
12060;DHT22;6091;51.432;6.880;2023-04-19T13:18:37;34.00;26.90
12060;DHT22;6091;51.432;6.880;2023-04-19T13:21:04;34.00;27.10
12060;DHT22;6091;51.432;6.880;2023-04-19T13:23:34;34.00;26.40
12060;DHT22;6091;51.432;6.880;2023-04-19T13:26:01;34.00;26.30
12060;DHT22;6091;51.432;6.880;2023-04-19T13:28:28;34.00;26.70
12060;DHT22;6091;51.432;6.880;2023-04-19T13:30:56;33.90;26.10
12060;DHT22;6091;51.432;6.880;2023-04-19T13:33:23;33.80;26.10
12060;DHT22;6091;51.432;6.880;2023-04-19T13:35:52;33.80;26.50
12060;DHT22;6091;51.432;6.880;2023-04-19T13:38:19;33.70;25.90
12060;DHT22;6091;51.432;6.880;2023-04-19T13:40:46;33.60;26.30
12060;DHT22;6091;51.432;6.880;2023-04-19T13:43:13;33.60;26.00
12060;DHT22;6091;51.432;6.880;2023-04-19T13:45:41;33.50;26.20
12060;DHT22;6091;51.432;6.880;2023-04-19T13:48:08;33.30;25.80
12060;DHT22;6091;51.432;6.880;2023-04-19T13:50:37;33.30;26.10
12060;DHT22;6091;51.432;6.880;2023-04-19T13:53:04;33.10;25.60
12060;DHT22;6091;51.432;6.880;2023-04-19T13:55:32;32.90;25.50
12060;DHT22;6091;51.432;6.880;2023-04-19T13:58:01;32.70;25.50
12060;DHT22;6091;51.432;6.880;2023-04-19T14:00:28;32.50;25.40
12060;DHT22;6091;51.432;6.880;2023-04-19T14:02:55;32.40;25.50
12060;DHT22;6091;51.432;6.880;2023-04-19T14:05:23;32.40;25.80
12060;DHT22;6091;51.432;6.880;2023-04-19T14:07:50;32.10;25.30
12060;DHT22;6091;51.432;6.880;2023-04-19T14:10:18;32.10;25.80
12060;DHT22;6091;51.432;6.880;2023-04-19T14:12:45;31.60;25.30
12060;DHT22;6091;51.432;6.880;2023-04-19T14:15:13;31.60;25.70
12060;DHT22;6091;51.432;6.880;2023-04-19T14:17:42;31.30;25.40
12060;DHT22;6091;51.432;6.880;2023-04-19T14:20:10;31.00;25.30
12060;DHT22;6091;51.432;6.880;2023-04-19T14:22:38;31.00;25.40
12060;DHT22;6091;51.432;6.880;2023-04-19T14:25:06;30.80;25.40
12060;DHT22;6091;51.432;6.880;2023-04-19T14:30:01;30.50;25.40
12060;DHT22;6091;51.432;6.880;2023-04-19T14:32:29;30.30;25.50
12060;DHT22;6091;51.432;6.880;2023-04-19T14:34:56;30.30;25.70
12060;DHT22;6091;51.432;6.880;2023-04-19T14:39:51;30.10;25.70
12060;DHT22;6091;51.432;6.880;2023-04-19T14:42:19;30.20;26.30
12060;DHT22;6091;51.432;6.880;2023-04-19T14:44:51;30.30;26.00
12060;DHT22;6091;51.432;6.880;2023-04-19T14:47:19;30.30;25.90
12060;DHT22;6091;51.432;6.880;2023-04-19T14:49:47;30.20;25.80
12060;DHT22;6091;51.432;6.880;2023-04-19T14:52:14;30.10;25.80
12060;DHT22;6091;51.432;6.880;2023-04-19T14:54:42;30.20;26.30
12060;DHT22;6091;51.432;6.880;2023-04-19T14:57:09;30.20;25.80
12060;DHT22;6091;51.432;6.880;2023-04-19T14:59:37;30.20;25.90
12060;DHT22;6091;51.432;6.880;2023-04-19T15:02:04;30.10;26.30
12060;DHT22;6091;51.432;6.880;2023-04-19T15:04:35;30.20;26.30
12060;DHT22;6091;51.432;6.880;2023-04-19T15:07:06;30.10;25.80
12060;DHT22;6091;51.432;6.880;2023-04-19T15:09:34;30.10;26.30
12060;DHT22;6091;51.432;6.880;2023-04-19T15:12:01;30.10;26.30
12060;DHT22;6091;51.432;6.880;2023-04-19T15:14:28;29.90;25.80
12060;DHT22;6091;51.432;6.880;2023-04-19T15:16:55;29.90;25.80
12060;DHT22;6091;51.432;6.880;2023-04-19T15:21:50;29.90;25.90
12060;DHT22;6091;51.432;6.880;2023-04-19T15:26:44;29.90;25.90
12060;DHT22;6091;51.432;6.880;2023-04-19T15:29:12;29.90;25.10
12060;DHT22;6091;51.432;6.880;2023-04-19T15:31:40;29.90;25.00
12060;DHT22;6091;51.432;6.880;2023-04-19T15:36:35;29.70;24.20
12060;DHT22;6091;51.432;6.880;2023-04-19T15:39:02;29.50;24.10
12060;DHT22;6091;51.432;6.880;2023-04-19T15:41:29;29.70;24.70
12060;DHT22;6091;51.432;6.880;2023-04-19T15:43:56;29.80;25.00
12060;DHT22;6091;51.432;6.880;2023-04-19T15:46:24;29.80;25.10
12060;DHT22;6091;51.432;6.880;2023-04-19T15:48:51;29.80;25.10
12060;DHT22;6091;51.432;6.880;2023-04-19T15:51:18;30.00;25.20
12060;DHT22;6091;51.432;6.880;2023-04-19T15:53:46;29.90;25.10
12060;DHT22;6091;51.432;6.880;2023-04-19T15:56:13;29.90;25.10
12060;DHT22;6091;51.432;6.880;2023-04-19T15:58:40;29.90;25.20
12060;DHT22;6091;51.432;6.880;2023-04-19T16:01:10;30.10;25.30
12060;DHT22;6091;51.432;6.880;2023-04-19T16:03:39;30.00;25.20
12060;DHT22;6091;51.432;6.880;2023-04-19T16:06:08;30.20;25.30
12060;DHT22;6091;51.432;6.880;2023-04-19T16:11:10;30.10;25.30
12060;DHT22;6091;51.432;6.880;2023-04-19T16:13:37;30.10;25.20
12060;DHT22;6091;51.432;6.880;2023-04-19T16:16:05;30.00;25.20
12060;DHT22;6091;51.432;6.880;2023-04-19T16:21:00;30.00;25.30
12060;DHT22;6091;51.432;6.880;2023-04-19T16:23:29;29.90;25.30
12060;DHT22;6091;51.432;6.880;2023-04-19T16:25:56;29.90;25.70
12060;DHT22;6091;51.432;6.880;2023-04-19T16:28:23;29.90;25.70
12060;DHT22;6091;51.432;6.880;2023-04-19T16:30:50;29.80;25.30
12060;DHT22;6091;51.432;6.880;2023-04-19T16:33:18;29.80;25.30
12060;DHT22;6091;51.432;6.880;2023-04-19T16:35:45;29.80;25.30
12060;DHT22;6091;51.432;6.880;2023-04-19T16:40:39;29.70;25.30
12060;DHT22;6091;51.432;6.880;2023-04-19T16:43:07;29.70;25.30
12060;DHT22;6091;51.432;6.880;2023-04-19T16:45:35;29.70;25.30
12060;DHT22;6091;51.432;6.880;2023-04-19T16:52:58;29.30;25.40
12060;DHT22;6091;51.432;6.880;2023-04-19T16:55:26;29.30;25.80
12060;DHT22;6091;51.432;6.880;2023-04-19T17:00:22;28.80;26.00
12060;DHT22;6091;51.432;6.880;2023-04-19T17:02:49;28.80;26.00
12060;DHT22;6091;51.432;6.880;2023-04-19T17:10:13;28.90;25.70
12060;DHT22;6091;51.432;6.880;2023-04-19T17:12:41;28.80;25.70
12060;DHT22;6091;51.432;6.880;2023-04-19T17:15:09;28.80;25.50
12060;DHT22;6091;51.432;6.880;2023-04-19T17:17:37;28.80;25.50
12060;DHT22;6091;51.432;6.880;2023-04-19T17:20:05;28.70;25.60
12060;DHT22;6091;51.432;6.880;2023-04-19T17:22:32;28.60;25.70
12060;DHT22;6091;51.432;6.880;2023-04-19T17:25:00;28.60;25.60